Historyczne dane pomiarowe

Dodano dane terminowe – wersja testowa.

Dane z okresu 1951-2019

Wersja bazy: 1.34 [2019-03-16, lista zmian], aktualizacja planowana na 2019-04-15

Dane meteo z obszaru Polski uzyskane na podstawie danych udostępnionych przez Instytut Meteorologii i Gospodarki Wodnej – Państwowy Instytut Badawczy.

 

Wybierz Datę:    

       

TemperaturaWilgotnośćWiatrCiśnienieOpadyŚniegCzas trwania zjawisk
 Stacja t tx tn tng RH VA  wxwx mslp ppp RRR   cm mm wxwxwxwxwxwxwx
1999-08-14 16.1 22.1 10.2 4.6 70.3- 2.7 2.3---- 0.0------------
1999-08-13 14.5 20.0 8.7 3.1 74.8- 7.3 1.7---- 0.0------------
1999-08-12 16.1 20.2 13.6 9.4 77.3- 5.3 2.7---- 0.0------------
1999-08-11 18.8 24.4 15.1 8.2 87.0- 7.0 4.0---- 0.0------------
1999-08-10 18.8 23.9 13.4 9.5 94.5- 8.0 1.7---- 2.6------------
1999-08-09 22.4 29.7 18.4 14.3 76.5- 3.7 2.3---- 1.1------------
1999-08-08 22.8 28.9 17.6 13.3 79.8- 4.7 1.7---- 0.0------------
1999-08-07 21.3 29.4 13.0 9.0 81.8- 5.7 0.7---- 0.3------------
1999-08-06 21.1 26.9 17.0 13.3 83.0- 5.7 2.7---- 0.0------------
1999-08-05 18.2 27.4 9.5 4.7 79.5- 5.0 1.3---- 1.0------------
1999-08-04 18.3 26.1 9.5 4.6 72.3- 3.3 2.0---- 0.0------------
1999-08-03 18.5 25.2 9.7 4.7 72.8- 3.0 1.7---- 0.0------------
1999-08-02 18.4 25.1 9.7 5.1 72.8- 3.0 1.7---- 0.0------------
1999-08-01 18.1 26.3 9.7 6.2 65.0- 5.3 3.0---- 0.0------------
1999-07-31 19.1 26.9 10.2 4.6 63.8- 3.0 3.0---- 0.0------------
1999-07-30 18.4 25.9 9.2 4.6 65.8- 1.3 3.7---- 0.0------------
1999-07-29 18.8 24.6 12.4 7.2 68.3- 3.7 4.0---- 0.0------------
1999-07-28 18.6 25.8 11.2 5.8 74.5- 2.3 4.3---- 0.0------------
1999-07-27 19.7 25.1 16.7 13.0 84.0- 5.3 5.0---- 0.0------------
1999-07-26 20.4 27.9 10.9 7.2 76.3- 2.0 2.0---- 0.0------------
1999-07-25 18.8 25.9 9.7 5.0 69.3- 0.3 2.0---- 0.0------------
1999-07-24 17.0 21.9 12.7 8.2 80.8- 2.7 2.7---- 0.0------------
1999-07-23 16.8 19.5 14.4 11.3 86.3- 8.0 1.0---- 0.0------------
1999-07-22 19.1 23.9 16.2 11.8 80.8- 6.0 2.7---- 0.0------------
1999-07-21 22.5 28.4 16.9 12.8 71.0- 4.3 4.7---- 0.6------------
1999-07-20 23.0 29.4 16.0 10.8 66.3- 1.0 3.3---- 0.0------------
1999-07-19 20.8 28.7 11.5 7.2 66.3- 3.0 1.3---- 0.0------------
1999-07-18 19.3 26.9 10.4 6.2 70.8- 1.7 1.0---- 0.0------------
1999-07-17 18.2 24.3 11.2 7.1 77.8- 1.7 1.7---- 0.0------------
1999-07-16 16.6 22.6 11.3 7.1 78.8- 4.7 2.3---- 0.0------------
1999-07-15 16.6 20.1 14.3 12.6 85.8- 4.7 3.3---- 2.9------------
1999-07-14 20.1 27.3 17.3 13.8 90.8- 6.7 3.3---- 3.0------------
1999-07-13 20.9 26.4 15.9 11.8 88.5- 7.7 2.3---- 4.6------------
1999-07-12 21.4 29.0 14.7 10.3 78.0- 4.0 1.7---- 0.1------------
1999-07-11 20.3 24.0 16.3 12.3 70.3- 6.0 4.0---- 0.0------------
1999-07-10 20.9 25.4 17.0 13.3 75.8- 7.0 7.3---- 0.0------------
1999-07-09 18.7 22.0 15.7 13.0 92.8- 8.0 3.7---- 0.0------------
1999-07-08 16.8 19.0 15.7 13.3 97.8- 8.0 5.3---- 4.4------------
1999-07-07 20.6 26.2 18.1 14.3 97.3- 8.0 2.3---- 20.6------------
1999-07-06 25.8 32.1 19.6 13.8 68.3- 5.0 3.0---- 0.0------------
1999-07-05 24.6 31.4 16.9 12.3 65.3- 0.3 2.7---- 0.0------------
1999-07-04 23.3 31.3 14.7 9.8 68.8- 1.3 1.7---- 0.0------------
1999-07-03 20.6 26.4 14.2 11.3 76.8- 1.3 1.3---- 0.0------------
1999-07-02 18.3 25.4 13.2 9.8 88.5- 4.7 1.3---- 2.8------------
1999-07-01 19.3 24.9 12.7 9.3 85.0- 7.7 1.3---- 3.3------------
1999-06-30 19.8 26.0 11.4 7.7 78.0- 3.7 1.3---- 0.0------------
1999-06-29 19.0 24.1 13.6 9.8 71.8- 1.3 1.7---- 0.0------------
1999-06-28 19.2 28.1 13.0 9.8 80.5- 4.7 2.7---- 40.4------------
1999-06-27 20.4 27.1 13.4 8.7 65.5- 3.7 1.7---- 2.3------------
1999-06-26 15.9 23.9 9.6 6.7 82.3- 5.0 2.0---- 0.0------------
1999-06-25 11.8 18.9 4.6 0.4 86.3- 6.0 2.3---- 7.4------------
1999-06-24 11.4 17.4 4.0 0.2 84.3- 4.3 1.7---- 0.0------------
1999-06-23 11.2 14.5 7.7 5.1 94.3- 7.7 3.3---- 2.7------------
1999-06-22 10.0 14.6 8.2 6.3 99.0- 8.0 9.0---- 39.4------------
1999-06-21 17.4 23.3 14.6 11.5 80.0- 7.0 3.3---- 26.4------------
1999-06-20 17.4 22.4 12.2 7.8 87.0- 8.0 0.7---- 0.0------------
1999-06-19 14.9 17.8 12.5 10.3 97.5- 8.0 2.3---- 0.4------------
1999-06-18 16.1 18.6 14.5 11.4 97.5- 8.0 2.7---- 38.3------------
1999-06-17 18.7 23.5 15.8 13.0 91.8- 8.0 2.3---- 0.1------------
1999-06-16 16.1 17.4 15.2 12.8 97.5- 8.0 2.7---- 0.2------------
2193.6 ms

 

Źródłem pochodzenia danych jest Instytut Meteorologii i Gospodarki Wodnej – Państwowy Instytut Badawczy. Dane Instytutu Meteorologii i Gospodarki Wodnej – Państwowego Instytutu Badawczego zostały przetworzone.

Dane źródłowe można odnaleźć na stronie https://dane.imgw.pl